Sanpo Maru No.5 — JL6343 — position and weather

sailwx.info

Track history (hours):
 
Tides and Currents Weather Stations Pressure Air Temp Water Temp Dewpoint Dewpoint Depression Visibility Wind Speed Wind Dir Waves Ship Positions

Sanpo Maru No.5

Last reported at 2014-Sep-16 15:33 UTC. Time now 2014-Sep-18 17:51 UTC.
Position N 32°09' E 131°46'.

Length 71 m; draft 3.5 m.

Type: Ship. MMSI: 431500283.

Date/timePositionNaut miles runAvg speedWind from/ knotsBaromVisibWave heightAir tempDewpointWater temp
2014-Sep-16 15:33N 32°09' E 131°46'1312.8
2014-Sep-16 14:33N 31°57' E 131°41'3 0.1
2014-Sep-15 04:08N 31°55' E 131°42'5 9.4
2014-Sep-15 03:33N 31°60' E 131°46'14 9.9
2014-Sep-15 02:09N 32°11' E 131°55'610.8
2014-Sep-15 01:33N 32°16' E 131°59'1111.2
2014-Sep-15 00:33N 32°26' E 132°07'188 9.9
2014-Sep-14 05:32N 34°23' E 135°02'1111.1
2014-Sep-14 04:33N 34°30' E 135°12'1010.6
2014-Sep-14 03:33N 34°36' E 135°23'3 1.4
2014-Sep-14 01:18N 34°34' E 135°26'3 0.7
2014-Sep-13 21:33N 34°36' E 135°23'0 0.0
2014-Sep-13 20:27N 34°35' E 135°23'0 0.0
2014-Sep-13 19:33N 34°35' E 135°23'0 0.1
2014-Sep-13 18:33N 34°35' E 135°23'0 0.0
2014-Sep-13 17:33N 34°35' E 135°23'0 0.0
2014-Sep-13 16:27N 34°35' E 135°23'0 0.0
2014-Sep-13 15:27N 34°35' E 135°23'0 0.0
2014-Sep-13 14:27N 34°35' E 135°23'0 0.0
2014-Sep-13 13:27N 34°35' E 135°23'0 0.0
2014-Sep-13 12:27N 34°35' E 135°23'0 0.0
2014-Sep-13 11:33N 34°35' E 135°23'0 0.0
2014-Sep-13 10:33N 34°35' E 135°23'0 0.0
2014-Sep-13 09:27N 34°35' E 135°23'0 0.0
2014-Sep-13 08:33N 34°35' E 135°23'0 0.0
2014-Sep-13 07:33N 34°35' E 135°23'0 0.1
2014-Sep-13 06:33N 34°36' E 135°23'8 8.0
2014-Sep-13 05:33N 34°34' E 135°13'1111.4
2014-Sep-13 04:33N 34°37' E 135°00'1110.7
2014-Sep-13 03:29N 34°41' E 134°47'7 0.5
2014-Sep-12 15:11N 34°37' E 134°54'711.7
2014-Sep-12 14:33N 34°36' E 135°03'1010.2
2014-Sep-12 13:33N 34°26' E 135°02'1211.5
2014-Sep-12 12:31N 34°15' E 134°58'  
Track history (hours):
 
Tides and Currents Weather Stations Pressure Air Temp Water Temp Dewpoint Dewpoint Depression Visibility Wind Speed Wind Dir Waves Ship Positions

Sanpo Maru No.5

Last reported at 2014-Sep-16 15:33 UTC. Time now 2014-Sep-18 17:51 UTC.
Position N 32°09' E 131°46'.

Length 71 m; draft 3.5 m.

Type: Ship. MMSI: 431500283.

Date/timePositionNaut miles runAvg speedWind from/ knotsBaromVisibWave heightAir tempDewpointWater temp
2014-Sep-16 15:33N 32°09' E 131°46'1312.8
2014-Sep-16 14:33N 31°57' E 131°41'3 0.1
2014-Sep-15 04:08N 31°55' E 131°42'5 9.4
2014-Sep-15 03:33N 31°60' E 131°46'14 9.9
2014-Sep-15 02:09N 32°11' E 131°55'610.8
2014-Sep-15 01:33N 32°16' E 131°59'1111.2
2014-Sep-15 00:33N 32°26' E 132°07'188 9.9
2014-Sep-14 05:32N 34°23' E 135°02'1111.1
2014-Sep-14 04:33N 34°30' E 135°12'1010.6
2014-Sep-14 03:33N 34°36' E 135°23'3 1.4
2014-Sep-14 01:18N 34°34' E 135°26'3 0.7
2014-Sep-13 21:33N 34°36' E 135°23'0 0.0
2014-Sep-13 20:27N 34°35' E 135°23'0 0.0
2014-Sep-13 19:33N 34°35' E 135°23'0 0.1
2014-Sep-13 18:33N 34°35' E 135°23'0 0.0
2014-Sep-13 17:33N 34°35' E 135°23'0 0.0
2014-Sep-13 16:27N 34°35' E 135°23'0 0.0
2014-Sep-13 15:27N 34°35' E 135°23'0 0.0
2014-Sep-13 14:27N 34°35' E 135°23'0 0.0
2014-Sep-13 13:27N 34°35' E 135°23'0 0.0
2014-Sep-13 12:27N 34°35' E 135°23'0 0.0
2014-Sep-13 11:33N 34°35' E 135°23'0 0.0
2014-Sep-13 10:33N 34°35' E 135°23'0 0.0
2014-Sep-13 09:27N 34°35' E 135°23'0 0.0
2014-Sep-13 08:33N 34°35' E 135°23'0 0.0
2014-Sep-13 07:33N 34°35' E 135°23'0 0.1
2014-Sep-13 06:33N 34°36' E 135°23'8 8.0
2014-Sep-13 05:33N 34°34' E 135°13'1111.4
2014-Sep-13 04:33N 34°37' E 135°00'1110.7
2014-Sep-13 03:29N 34°41' E 134°47'7 0.5
2014-Sep-12 15:11N 34°37' E 134°54'711.7
2014-Sep-12 14:33N 34°36' E 135°03'1010.2
2014-Sep-12 13:33N 34°26' E 135°02'1211.5
2014-Sep-12 12:31N 34°15' E 134°58'  

Dump ship's entire track history